Darstellungsparameter: Aktuell verwendete Einstellungen:
Skalierung der Graphiken ... ?
xyx+y,   Skalierungsfaktor:      Skalierung: Modus: x, Faktor: 1
Darstellungszeitraum ... ?
Vom - - bis: - -   Zeitraum: 08.12.2019 - 08.12.2019
Min/Max/Avg-Anzeige ... ?
Zeige MMA aktuell
Zeige MMA Monat
Zeige MMA alles
Zeige --A aktuell
Zeige --A Monat
Zeige --A alles
Keine MMA-Anzeige
MMA:
Average (ber die Originaldaten)
MMA-Basis: 08.12.2019 - 08.12.2019
Quicknavigation für Darstellung... ?
Tage:      1T, 2T, 3T, 5T -1T -2T -3T -5T +1T +2T +3T +5T
Wochen: 1W, 2W, 3W -1W -2W -3W +1W +2W +3W
Monate: 1M, 3M, 6M -1M -3M -6M +1M +3M +6M
Jahre:    1J, 3J, 5J, 10J -1J -3J -5J -10J +1J +3J +5J +10J
Nutze für die Darstellung ... ?
Originaldaten oder Mittelwerte auf ...
Stundenbasis Tagesbasis Wochenbasis
Monatsbasis Jahresbasis      Datenbasis: Original-Daten
Darstellen als:
Statistik (Auto) Statistik J:M      Darstellung:
Zur Graphik,    zurück zur Übersicht aller Sensoren.
 
Tabellarische Datenbersicht: ?
 
Sensor: Nr:Datum:Temp:Abs-Feuchte:Windchill:Wind:
Aussen-T/F 1 08-12-2019 00:00:00 8.3 C 7.59 g/m*3 7.41 C 6.4 km/h
2 08-12-2019 00:05:00 8.3 C 7.59 g/m*3 8.3 C 1.6 km/h
3 08-12-2019 00:10:00 8.4 C 7.47 g/m*3 6.24 C 12.9 km/h
4 08-12-2019 00:15:00 8.7 C 7.44 g/m*3 6.6 C 12.9 km/h
5 08-12-2019 00:20:00 8.9 C 7.45 g/m*3 6.42 C 16.1 km/h
6 08-12-2019 00:25:00 9.1 C 7.54 g/m*3 8.33 C 6.4 km/h
7 08-12-2019 00:30:00 9.2 C 7.5 g/m*3 7.46 C 11.3 km/h
8 08-12-2019 00:35:00 9.2 C 7.5 g/m*3 8.45 C 6.4 km/h
9 08-12-2019 00:40:00 9.2 C 7.5 g/m*3 8.05 C 8.1 km/h
10 08-12-2019 00:45:00 9.2 C 7.5 g/m*3 8.05 C 8.1 km/h
11 08-12-2019 00:50:00 9.2 C 7.5 g/m*3 9.2 C 1.6 km/h
12 08-12-2019 00:55:00 9.1 C 7.54 g/m*3 9.1 C 4.8 km/h
13 08-12-2019 01:00:00 9.1 C 7.54 g/m*3 9.1 C 0 km/h
14 08-12-2019 01:05:00 9.1 C 7.54 g/m*3 9.1 C 0 km/h
15 08-12-2019 01:10:00 9 C 7.58 g/m*3 7.81 C 8.1 km/h
16 08-12-2019 01:15:00 9 C 7.58 g/m*3 9 C 1.6 km/h
17 08-12-2019 01:20:00 8.9 C 7.53 g/m*3 8.9 C 1.6 km/h
18 08-12-2019 01:25:00 9 C 7.58 g/m*3 8.21 C 6.4 km/h
19 08-12-2019 01:30:00 9.2 C 7.59 g/m*3 7.21 C 12.9 km/h
20 08-12-2019 01:35:00 9.2 C 7.59 g/m*3 9.2 C 4.8 km/h
21 08-12-2019 01:40:00 9.3 C 7.55 g/m*3 8.56 C 6.4 km/h
22 08-12-2019 01:45:00 9.3 C 7.55 g/m*3 7.33 C 12.9 km/h
23 08-12-2019 01:50:00 9.4 C 7.51 g/m*3 7.46 C 12.9 km/h
24 08-12-2019 01:55:00 9.4 C 7.42 g/m*3 7.7 C 11.3 km/h
25 08-12-2019 02:00:00 9.5 C 7.46 g/m*3 7.82 C 11.3 km/h
Sensor: Nr:Datum:Temp:Abs-Feuchte:Windchill:Wind:
Aussen-T/F 26 08-12-2019 02:05:00 9.5 C 7.37 g/m*3 7.36 C 14.5 km/h
27 08-12-2019 02:10:00 9.6 C 7.42 g/m*3 8.52 C 8.1 km/h
28 08-12-2019 02:15:00 9.5 C 7.37 g/m*3 8.4 C 8.1 km/h
29 08-12-2019 02:20:00 9.4 C 7.33 g/m*3 7.97 C 9.7 km/h
30 08-12-2019 02:25:00 9.4 C 7.33 g/m*3 7.46 C 12.9 km/h
31 08-12-2019 02:30:00 9.4 C 7.24 g/m*3 7.97 C 9.7 km/h
32 08-12-2019 02:35:00 9.4 C 7.24 g/m*3 8.68 C 6.4 km/h
33 08-12-2019 02:40:00 9.4 C 7.24 g/m*3 8.68 C 6.4 km/h
34 08-12-2019 02:45:00 9.4 C 7.24 g/m*3 7.97 C 9.7 km/h
35 08-12-2019 02:50:00 9.4 C 7.24 g/m*3 8.68 C 6.4 km/h
36 08-12-2019 02:55:00 9.4 C 7.24 g/m*3 8.68 C 6.4 km/h
37 08-12-2019 03:00:00 9.4 C 7.24 g/m*3 7.46 C 12.9 km/h
38 08-12-2019 03:05:00 9.4 C 7.24 g/m*3 7.7 C 11.3 km/h
39 08-12-2019 03:10:00 9.6 C 7.33 g/m*3 7.94 C 11.3 km/h
40 08-12-2019 03:15:00 9.6 C 7.33 g/m*3 9.6 C 4.8 km/h
41 08-12-2019 03:20:00 9.4 C 7.33 g/m*3 9.4 C 4.8 km/h
42 08-12-2019 03:25:00 9.4 C 7.33 g/m*3 7.97 C 9.7 km/h
43 08-12-2019 03:30:00 9.5 C 7.28 g/m*3 7.16 C 16.1 km/h
44 08-12-2019 03:35:00 9.6 C 7.42 g/m*3 8.91 C 6.4 km/h
45 08-12-2019 03:40:00 9.6 C 7.42 g/m*3 8.52 C 8.1 km/h
46 08-12-2019 03:45:00 9.6 C 7.42 g/m*3 7.48 C 14.5 km/h
47 08-12-2019 03:50:00 9.7 C 7.47 g/m*3 7.82 C 12.9 km/h
48 08-12-2019 03:55:00 9.8 C 7.52 g/m*3 7.04 C 20.9 km/h
49 08-12-2019 04:00:00 9.9 C 7.56 g/m*3 7.16 C 20.9 km/h
50 08-12-2019 04:05:00 9.9 C 7.56 g/m*3 7.66 C 16.1 km/h
Sensor: Nr:Datum:Temp:Abs-Feuchte:Windchill:Wind:
Aussen-T/F 51 08-12-2019 04:10:00 10 C 7.71 g/m*3 7.29 C 20.9 km/h
52 08-12-2019 04:15:00 10 C 7.71 g/m*3 8.42 C 11.3 km/h
53 08-12-2019 04:20:00 9.9 C 7.66 g/m*3 8.3 C 11.3 km/h
54 08-12-2019 04:25:00 9.9 C 7.75 g/m*3 8.3 C 11.3 km/h
55 08-12-2019 04:30:00 9.9 C 7.75 g/m*3 7.32 C 19.3 km/h
56 08-12-2019 04:35:00 9.9 C 7.75 g/m*3 7.02 C 22.5 km/h
57 08-12-2019 04:40:00 9.9 C 7.75 g/m*3 7.48 C 17.7 km/h
58 08-12-2019 04:45:00 9.9 C 7.75 g/m*3 7.48 C 17.7 km/h
59 08-12-2019 04:50:00 9.9 C 7.75 g/m*3 8.06 C 12.9 km/h
60 08-12-2019 04:55:00 9.9 C 7.75 g/m*3 8.3 C 11.3 km/h
61 08-12-2019 05:00:00 9.9 C 7.75 g/m*3 6.89 C 24.1 km/h
62 08-12-2019 05:05:00 9.9 C 7.84 g/m*3 8.87 C 8.1 km/h
63 08-12-2019 05:10:00 9.9 C 7.75 g/m*3 7.66 C 16.1 km/h
64 08-12-2019 05:15:00 9.9 C 7.84 g/m*3 7.85 C 14.5 km/h
65 08-12-2019 05:20:00 9.9 C 7.84 g/m*3 7.66 C 16.1 km/h
66 08-12-2019 05:25:00 9.9 C 7.94 g/m*3 7.16 C 20.9 km/h
67 08-12-2019 05:30:00 9.9 C 7.94 g/m*3 7.66 C 16.1 km/h
68 08-12-2019 05:35:00 9.9 C 7.94 g/m*3 8.06 C 12.9 km/h
69 08-12-2019 05:40:00 9.9 C 7.94 g/m*3 7.85 C 14.5 km/h
70 08-12-2019 05:45:00 9.9 C 7.94 g/m*3 7.32 C 19.3 km/h
71 08-12-2019 05:50:00 9.9 C 7.94 g/m*3 7.48 C 17.7 km/h
72 08-12-2019 05:55:00 9.8 C 7.89 g/m*3 8.18 C 11.3 km/h
73 08-12-2019 06:00:00 9.8 C 7.89 g/m*3 8.75 C 8.1 km/h
74 08-12-2019 06:05:00 9.8 C 7.89 g/m*3 6.17 C 32.2 km/h
75 08-12-2019 06:10:00 9.9 C 7.94 g/m*3 7.48 C 17.7 km/h
Sensor: Nr:Datum:Temp:Abs-Feuchte:Windchill:Wind:
Aussen-T/F 76 08-12-2019 06:15:00 9.9 C 7.94 g/m*3 7.16 C 20.9 km/h
77 08-12-2019 06:20:00 10.1 C 7.94 g/m*3 7.42 C 20.9 km/h
78 08-12-2019 06:25:00 10.2 C 7.99 g/m*3 7.7 C 19.3 km/h
79 08-12-2019 06:30:00 10.2 C 8.09 g/m*3 7.27 C 24.1 km/h
80 08-12-2019 06:35:00 10.2 C 8.09 g/m*3 7.54 C 20.9 km/h
81 08-12-2019 06:40:00 10.2 C 8.09 g/m*3 7.7 C 19.3 km/h
82 08-12-2019 06:45:00 10.2 C 8.09 g/m*3 6.69 C 32.2 km/h
83 08-12-2019 06:50:00 10.2 C 8.09 g/m*3 7.54 C 20.9 km/h
84 08-12-2019 06:55:00 10.3 C 8.04 g/m*3 7.98 C 17.7 km/h
85 08-12-2019 07:00:00 10.3 C 8.04 g/m*3 7.98 C 17.7 km/h
86 08-12-2019 07:05:00 10.3 C 8.04 g/m*3 8.55 C 12.9 km/h
87 08-12-2019 07:10:00 10.3 C 7.95 g/m*3 7.98 C 17.7 km/h
88 08-12-2019 07:15:00 10.4 C 8 g/m*3 8.11 C 17.7 km/h
89 08-12-2019 07:20:00 10.5 C 8.05 g/m*3 7.79 C 22.5 km/h
90 08-12-2019 07:25:00 10.5 C 8.15 g/m*3 8.4 C 16.1 km/h
91 08-12-2019 07:30:00 10.4 C 8.1 g/m*3 9.16 C 9.7 km/h
92 08-12-2019 07:35:00 10.4 C 8.1 g/m*3 7.53 C 24.1 km/h
93 08-12-2019 07:40:00 10.5 C 8.05 g/m*3 8.07 C 19.3 km/h
94 08-12-2019 07:45:00 10.5 C 8.05 g/m*3 9.02 C 11.3 km/h
95 08-12-2019 07:50:00 10.5 C 8.05 g/m*3 8.59 C 14.5 km/h
96 08-12-2019 07:55:00 10.5 C 8.05 g/m*3 8.07 C 19.3 km/h
97 08-12-2019 08:00:00 10.5 C 8.05 g/m*3 9.28 C 9.7 km/h
98 08-12-2019 08:05:00 10.4 C 8 g/m*3 8.9 C 11.3 km/h
99 08-12-2019 08:10:00 10.5 C 8.05 g/m*3 7.79 C 22.5 km/h
100 08-12-2019 08:15:00 10.6 C 8.1 g/m*3 8.53 C 16.1 km/h
Sensor: Nr:Datum:Temp:Abs-Feuchte:Windchill:Wind:
Aussen-T/F 101 08-12-2019 08:20:00 10.6 C 8.2 g/m*3 7.91 C 22.5 km/h
102 08-12-2019 08:25:00 10.6 C 8.2 g/m*3 8.71 C 14.5 km/h
103 08-12-2019 08:30:00 10.6 C 8.2 g/m*3 7.78 C 24.1 km/h
104 08-12-2019 08:35:00 10.6 C 8.2 g/m*3 7.78 C 24.1 km/h
105 08-12-2019 08:40:00 10.6 C 8.2 g/m*3 8.05 C 20.9 km/h
106 08-12-2019 08:45:00 10.6 C 8.2 g/m*3 7.32 C 30.6 km/h
107 08-12-2019 08:50:00 10.6 C 8.2 g/m*3 7.03 C 35.4 km/h
108 08-12-2019 08:55:00 10.6 C 8.2 g/m*3 8.05 C 20.9 km/h
109 08-12-2019 09:00:00 10.6 C 8.2 g/m*3 7.42 C 29 km/h
110 08-12-2019 09:05:00 10.6 C 8.2 g/m*3 8.2 C 19.3 km/h
111 08-12-2019 09:10:00 10.6 C 8.3 g/m*3 7.91 C 22.5 km/h
112 08-12-2019 09:15:00 10.6 C 8.3 g/m*3 7.54 C 27.4 km/h
113 08-12-2019 09:20:00 10.6 C 8.3 g/m*3 7.42 C 29 km/h
114 08-12-2019 09:25:00 10.6 C 8.3 g/m*3 7.03 C 35.4 km/h
115 08-12-2019 09:30:00 10.7 C 8.25 g/m*3 7.66 C 27.4 km/h
116 08-12-2019 09:35:00 10.7 C 8.25 g/m*3 7.55 C 29 km/h
117 08-12-2019 09:40:00 10.7 C 8.25 g/m*3 7.91 C 24.1 km/h
118 08-12-2019 09:45:00 10.7 C 8.25 g/m*3 7.35 C 32.2 km/h
119 08-12-2019 09:50:00 10.7 C 8.25 g/m*3 7.91 C 24.1 km/h
120 08-12-2019 09:55:00 10.7 C 8.35 g/m*3 8.18 C 20.9 km/h
121 08-12-2019 10:00:00 10.7 C 8.35 g/m*3 6.82 C 41.8 km/h
122 08-12-2019 10:05:00 10.8 C 8.4 g/m*3 7.92 C 25.7 km/h
123 08-12-2019 10:10:00 10.8 C 8.4 g/m*3 7.79 C 27.4 km/h
124 08-12-2019 10:15:00 10.8 C 8.4 g/m*3 7.48 C 32.2 km/h
125 08-12-2019 10:20:00 10.8 C 8.4 g/m*3 7.92 C 25.7 km/h
Sensor: Nr:Datum:Temp:Abs-Feuchte:Windchill:Wind:
Aussen-T/F 126 08-12-2019 10:25:00 10.8 C 8.4 g/m*3 7.2 C 37 km/h
127 08-12-2019 10:30:00 10.8 C 8.5 g/m*3 8.04 C 24.1 km/h
128 08-12-2019 10:35:00 10.8 C 8.5 g/m*3 7.92 C 25.7 km/h
129 08-12-2019 10:40:00 10.7 C 8.45 g/m*3 8.18 C 20.9 km/h
130 08-12-2019 10:45:00 10.7 C 8.45 g/m*3 8.18 C 20.9 km/h
131 08-12-2019 10:50:00 10.7 C 8.55 g/m*3 7.79 C 25.7 km/h
132 08-12-2019 10:55:00 10.7 C 8.55 g/m*3 8.48 C 17.7 km/h
133 08-12-2019 11:00:00 10.8 C 8.5 g/m*3 8.45 C 19.3 km/h
134 08-12-2019 11:05:00 10.8 C 8.5 g/m*3 8.61 C 17.7 km/h
135 08-12-2019 11:10:00 10.8 C 8.5 g/m*3 8.3 C 20.9 km/h
136 08-12-2019 11:15:00 10.9 C 8.55 g/m*3 7.81 C 29 km/h
137 08-12-2019 11:20:00 11 C 8.51 g/m*3 8.3 C 24.1 km/h
138 08-12-2019 11:25:00 11.1 C 8.56 g/m*3 11.1 C 27.4 km/h
139 08-12-2019 11:30:00 11.1 C 8.56 g/m*3 11.1 C 19.3 km/h
140 08-12-2019 11:35:00 11.1 C 8.56 g/m*3 11.1 C 24.1 km/h
141 08-12-2019 11:40:00 11.1 C 8.56 g/m*3 11.1 C 19.3 km/h
142 08-12-2019 11:45:00 11.1 C 8.56 g/m*3 11.1 C 16.1 km/h
143 08-12-2019 11:50:00 11.2 C 8.62 g/m*3 11.2 C 30.6 km/h
144 08-12-2019 11:55:00 11.2 C 8.62 g/m*3 11.2 C 20.9 km/h
145 08-12-2019 12:00:00 11.2 C 8.62 g/m*3 11.2 C 19.3 km/h
146 08-12-2019 12:05:00 11.3 C 8.67 g/m*3 11.3 C 19.3 km/h
147 08-12-2019 12:10:00 11.4 C 8.72 g/m*3 11.4 C 22.5 km/h
148 08-12-2019 12:15:00 11.5 C 8.78 g/m*3 11.5 C 24.1 km/h
149 08-12-2019 12:20:00 11.5 C 8.78 g/m*3 11.5 C 20.9 km/h
150 08-12-2019 12:25:00 11.6 C 8.73 g/m*3 11.6 C 24.1 km/h
Sensor: Nr:Datum:Temp:Abs-Feuchte:Windchill:Wind:
Aussen-T/F 151 08-12-2019 12:30:00 11.6 C 8.73 g/m*3 11.6 C 17.7 km/h
152 08-12-2019 12:35:00 11.6 C 8.83 g/m*3 11.6 C 27.4 km/h
153 08-12-2019 12:40:00 11.7 C 8.89 g/m*3 11.7 C 24.1 km/h
154 08-12-2019 12:45:00 11.7 C 8.89 g/m*3 11.7 C 20.9 km/h
155 08-12-2019 12:50:00 11.7 C 8.89 g/m*3 11.7 C 25.7 km/h
156 08-12-2019 12:55:00 11.7 C 8.99 g/m*3 11.7 C 17.7 km/h
157 08-12-2019 13:00:00 11.7 C 8.99 g/m*3 11.7 C 22.5 km/h
158 08-12-2019 13:05:00 11.7 C 8.99 g/m*3 11.7 C 16.1 km/h
159 08-12-2019 13:10:00 11.7 C 8.99 g/m*3 11.7 C 20.9 km/h
160 08-12-2019 13:15:00 11.7 C 8.99 g/m*3 11.7 C 14.5 km/h
161 08-12-2019 13:20:00 11.7 C 8.99 g/m*3 11.7 C 20.9 km/h
162 08-12-2019 13:25:00 11.7 C 8.99 g/m*3 11.7 C 20.9 km/h
163 08-12-2019 13:30:00 11.7 C 9.1 g/m*3 11.7 C 16.1 km/h
164 08-12-2019 13:35:00 11.7 C 9.1 g/m*3 11.7 C 17.7 km/h
165 08-12-2019 13:40:00 11.7 C 9.1 g/m*3 11.7 C 12.9 km/h
166 08-12-2019 13:45:00 11.7 C 9.1 g/m*3 11.7 C 17.7 km/h
167 08-12-2019 13:50:00 11.7 C 9.1 g/m*3 11.7 C 12.9 km/h
168 08-12-2019 13:55:00 11.8 C 9.16 g/m*3 11.8 C 27.4 km/h
169 08-12-2019 14:00:00 11.8 C 9.16 g/m*3 11.8 C 17.7 km/h
170 08-12-2019 14:05:00 11.8 C 9.16 g/m*3 11.8 C 9.7 km/h
171 08-12-2019 14:10:00 11.8 C 9.16 g/m*3 11.8 C 20.9 km/h
172 08-12-2019 14:15:00 11.8 C 9.16 g/m*3 11.8 C 19.3 km/h
173 08-12-2019 14:20:00 11.9 C 9.21 g/m*3 11.9 C 17.7 km/h
174 08-12-2019 14:25:00 11.9 C 9.21 g/m*3 11.9 C 22.5 km/h
175 08-12-2019 14:30:00 11.9 C 9.21 g/m*3 11.9 C 11.3 km/h
Sensor: Nr:Datum:Temp:Abs-Feuchte:Windchill:Wind:
Aussen-T/F 176 08-12-2019 14:35:00 11.9 C 9.21 g/m*3 11.9 C 16.1 km/h
177 08-12-2019 14:40:00 12 C 9.27 g/m*3 12 C 14.5 km/h
178 08-12-2019 14:45:00 12 C 9.27 g/m*3 12 C 14.5 km/h
179 08-12-2019 14:50:00 12 C 9.27 g/m*3 12 C 12.9 km/h
180 08-12-2019 14:55:00 12 C 9.27 g/m*3 12 C 17.7 km/h
181 08-12-2019 15:00:00 12 C 9.27 g/m*3 12 C 16.1 km/h
182 08-12-2019 15:05:00 12.1 C 9.33 g/m*3 12.1 C 17.7 km/h
183 08-12-2019 15:10:00 12.1 C 9.33 g/m*3 12.1 C 19.3 km/h
184 08-12-2019 15:15:00 12.1 C 9.33 g/m*3 12.1 C 16.1 km/h
185 08-12-2019 15:20:00 12.1 C 9.33 g/m*3 12.1 C 12.9 km/h
186 08-12-2019 15:25:00 12.1 C 9.33 g/m*3 12.1 C 12.9 km/h
187 08-12-2019 15:30:00 12.1 C 9.33 g/m*3 12.1 C 12.9 km/h
188 08-12-2019 15:35:00 12.1 C 9.33 g/m*3 12.1 C 12.9 km/h
189 08-12-2019 15:40:00 12.1 C 9.33 g/m*3 12.1 C 17.7 km/h
190 08-12-2019 15:45:00 12.1 C 9.33 g/m*3 12.1 C 17.7 km/h
191 08-12-2019 15:50:00 12.1 C 9.33 g/m*3 12.1 C 12.9 km/h
192 08-12-2019 15:55:00 12.1 C 9.33 g/m*3 12.1 C 11.3 km/h
193 08-12-2019 16:00:00 12.1 C 9.44 g/m*3 12.1 C 11.3 km/h
194 08-12-2019 16:05:00 12.1 C 9.44 g/m*3 12.1 C 11.3 km/h
195 08-12-2019 16:10:00 12.1 C 9.44 g/m*3 12.1 C 16.1 km/h
196 08-12-2019 16:15:00 12.1 C 9.44 g/m*3 12.1 C 12.9 km/h
197 08-12-2019 16:20:00 12.1 C 9.44 g/m*3 12.1 C 16.1 km/h
198 08-12-2019 16:25:00 12.1 C 9.44 g/m*3 12.1 C 12.9 km/h
199 08-12-2019 16:30:00 12.1 C 9.44 g/m*3 12.1 C 11.3 km/h
200 08-12-2019 16:35:00 12 C 9.38 g/m*3 12 C 17.7 km/h
Sensor: Nr:Datum:Temp:Abs-Feuchte:Windchill:Wind:
Aussen-T/F 201 08-12-2019 16:40:00 12 C 9.48 g/m*3 12 C 16.1 km/h
202 08-12-2019 16:45:00 11.6 C 9.04 g/m*3 11.6 C 22.5 km/h
203 08-12-2019 16:50:00 10.9 C 8.75 g/m*3 9.08 C 14.5 km/h
204 08-12-2019 16:55:00 10.3 C 8.52 g/m*3 7.82 C 19.3 km/h
205 08-12-2019 17:00:00 10 C 8.46 g/m*3 8.68 C 9.7 km/h
206 08-12-2019 17:05:00 9.8 C 8.44 g/m*3 8.45 C 9.7 km/h
207 08-12-2019 17:10:00 9.6 C 8.34 g/m*3 8.21 C 9.7 km/h
208 08-12-2019 17:15:00 9.5 C 8.37 g/m*3 8.79 C 6.4 km/h
209 08-12-2019 17:20:00 9.4 C 8.32 g/m*3 7.7 C 11.3 km/h
210 08-12-2019 17:25:00 9.3 C 8.27 g/m*3 8.56 C 6.4 km/h
211 08-12-2019 17:30:00 9.2 C 8.22 g/m*3 8.05 C 8.1 km/h
212 08-12-2019 17:35:00 9.2 C 8.22 g/m*3 8.45 C 6.4 km/h
213 08-12-2019 17:40:00 9.1 C 8.16 g/m*3 9.1 C 3.2 km/h
214 08-12-2019 17:45:00 9.1 C 8.16 g/m*3 9.1 C 4.8 km/h
215 08-12-2019 17:50:00 9 C 8.11 g/m*3 9 C 4.8 km/h
216 08-12-2019 17:55:00 9 C 8.2 g/m*3 9 C 1.6 km/h
217 08-12-2019 18:00:00 8.9 C 8.15 g/m*3 8.1 C 6.4 km/h
218 08-12-2019 18:05:00 8.9 C 8.15 g/m*3 8.9 C 4.8 km/h
219 08-12-2019 18:10:00 8.9 C 8.15 g/m*3 8.9 C 4.8 km/h
220 08-12-2019 18:15:00 8.9 C 8.15 g/m*3 8.1 C 6.4 km/h
221 08-12-2019 18:20:00 8.8 C 8.09 g/m*3 7.25 C 9.7 km/h
222 08-12-2019 18:25:00 8.8 C 8.09 g/m*3 8.8 C 4.8 km/h
223 08-12-2019 18:30:00 8.7 C 8.04 g/m*3 7.87 C 6.4 km/h
224 08-12-2019 18:35:00 8.7 C 8.04 g/m*3 7.87 C 6.4 km/h
225 08-12-2019 18:40:00 8.7 C 8.04 g/m*3 7.87 C 6.4 km/h
Sensor: Nr:Datum:Temp:Abs-Feuchte:Windchill:Wind:
Aussen-T/F 226 08-12-2019 18:45:00 8.6 C 7.91 g/m*3 7.01 C 9.7 km/h
227 08-12-2019 18:50:00 8.7 C 7.87 g/m*3 6.6 C 12.9 km/h
228 08-12-2019 18:55:00 8.7 C 7.96 g/m*3 7.87 C 6.4 km/h
229 08-12-2019 19:00:00 8.7 C 7.87 g/m*3 7.87 C 6.4 km/h
230 08-12-2019 19:05:00 8.7 C 7.87 g/m*3 8.7 C 4.8 km/h
231 08-12-2019 19:10:00 8.8 C 7.92 g/m*3 7.58 C 8.1 km/h
232 08-12-2019 19:15:00 8.8 C 7.92 g/m*3 6.97 C 11.3 km/h
233 08-12-2019 19:20:00 8.8 C 7.83 g/m*3 7.58 C 8.1 km/h
234 08-12-2019 19:25:00 8.8 C 7.83 g/m*3 7.25 C 9.7 km/h
235 08-12-2019 19:30:00 8.8 C 7.83 g/m*3 7.98 C 6.4 km/h
236 08-12-2019 19:35:00 8.8 C 7.83 g/m*3 8.8 C 4.8 km/h
237 08-12-2019 19:40:00 8.8 C 7.92 g/m*3 8.8 C 3.2 km/h
238 08-12-2019 19:45:00 8.7 C 7.87 g/m*3 7.13 C 9.7 km/h
239 08-12-2019 19:50:00 8.7 C 7.87 g/m*3 8.7 C 1.6 km/h
240 08-12-2019 19:55:00 8.6 C 7.91 g/m*3 8.6 C 4.8 km/h
241 08-12-2019 20:00:00 8.5 C 7.85 g/m*3 8.5 C 3.2 km/h
242 08-12-2019 20:05:00 8.4 C 7.8 g/m*3 8.4 C 4.8 km/h
243 08-12-2019 20:10:00 8.3 C 7.75 g/m*3 8.3 C 4.8 km/h
244 08-12-2019 20:15:00 8.4 C 7.89 g/m*3 6.78 C 9.7 km/h
245 08-12-2019 20:20:00 8.4 C 7.8 g/m*3 7.11 C 8.1 km/h
246 08-12-2019 20:25:00 8.4 C 7.8 g/m*3 6.49 C 11.3 km/h
247 08-12-2019 20:30:00 8.5 C 7.77 g/m*3 6.13 C 14.5 km/h
248 08-12-2019 20:35:00 8.5 C 7.77 g/m*3 6.9 C 9.7 km/h
249 08-12-2019 20:40:00 8.5 C 7.77 g/m*3 7.64 C 6.4 km/h
250 08-12-2019 20:45:00 8.6 C 7.73 g/m*3 6.48 C 12.9 km/h
Sensor: Nr:Datum:Temp:Abs-Feuchte:Windchill:Wind:
Aussen-T/F 251 08-12-2019 20:50:00 8.6 C 7.73 g/m*3 7.75 C 6.4 km/h
252 08-12-2019 20:55:00 8.7 C 7.7 g/m*3 6.38 C 14.5 km/h
253 08-12-2019 21:00:00 8.7 C 7.61 g/m*3 6.6 C 12.9 km/h
254 08-12-2019 21:05:00 8.8 C 7.66 g/m*3 7.58 C 8.1 km/h
255 08-12-2019 21:10:00 8.8 C 7.57 g/m*3 6.97 C 11.3 km/h
256 08-12-2019 21:15:00 8.8 C 7.57 g/m*3 6.72 C 12.9 km/h
257 08-12-2019 21:20:00 8.9 C 7.53 g/m*3 7.37 C 9.7 km/h
258 08-12-2019 21:25:00 8.9 C 7.62 g/m*3 7.09 C 11.3 km/h
259 08-12-2019 21:30:00 8.9 C 7.53 g/m*3 6.62 C 14.5 km/h
260 08-12-2019 21:35:00 8.9 C 7.62 g/m*3 6.42 C 16.1 km/h
261 08-12-2019 21:40:00 8.9 C 7.62 g/m*3 7.69 C 8.1 km/h
262 08-12-2019 21:45:00 8.8 C 7.57 g/m*3 7.25 C 9.7 km/h
263 08-12-2019 21:50:00 8.8 C 7.57 g/m*3 6.72 C 12.9 km/h
264 08-12-2019 21:55:00 8.8 C 7.57 g/m*3 7.58 C 8.1 km/h
265 08-12-2019 22:00:00 8.8 C 7.57 g/m*3 7.58 C 8.1 km/h
266 08-12-2019 22:05:00 8.7 C 7.52 g/m*3 7.46 C 8.1 km/h
267 08-12-2019 22:10:00 8.7 C 7.61 g/m*3 7.46 C 8.1 km/h
268 08-12-2019 22:15:00 8.6 C 7.56 g/m*3 8.6 C 4.8 km/h
269 08-12-2019 22:20:00 8.6 C 7.56 g/m*3 6.48 C 12.9 km/h
270 08-12-2019 22:25:00 8.6 C 7.56 g/m*3 6.25 C 14.5 km/h
271 08-12-2019 22:30:00 8.7 C 7.61 g/m*3 5.98 C 17.7 km/h
272 08-12-2019 22:35:00 8.8 C 7.57 g/m*3 5.93 C 19.3 km/h
273 08-12-2019 22:40:00 8.9 C 7.62 g/m*3 6.42 C 16.1 km/h
274 08-12-2019 22:45:00 9.1 C 7.63 g/m*3 5.86 C 24.1 km/h
275 08-12-2019 22:50:00 9.1 C 7.63 g/m*3 6.15 C 20.9 km/h
Sensor: Nr:Datum:Temp:Abs-Feuchte:Windchill:Wind:
Aussen-T/F 276 08-12-2019 22:55:00 9.1 C 7.63 g/m*3 6.15 C 20.9 km/h
277 08-12-2019 23:00:00 9.1 C 7.63 g/m*3 7.33 C 11.3 km/h
278 08-12-2019 23:05:00 9 C 7.58 g/m*3 6.75 C 14.5 km/h
279 08-12-2019 23:10:00 9 C 7.58 g/m*3 6.75 C 14.5 km/h
280 08-12-2019 23:15:00 9 C 7.58 g/m*3 7.21 C 11.3 km/h
281 08-12-2019 23:20:00 9.1 C 7.63 g/m*3 6.87 C 14.5 km/h
282 08-12-2019 23:25:00 9.1 C 7.54 g/m*3 7.09 C 12.9 km/h
283 08-12-2019 23:30:00 9.1 C 7.54 g/m*3 5.86 C 24.1 km/h
284 08-12-2019 23:35:00 9.1 C 7.54 g/m*3 6.31 C 19.3 km/h
285 08-12-2019 23:40:00 9 C 7.41 g/m*3 6.19 C 19.3 km/h
286 08-12-2019 23:45:00 9 C 7.32 g/m*3 5.73 C 24.1 km/h
287 08-12-2019 23:50:00 8.9 C 7.27 g/m*3 6.62 C 14.5 km/h
288 08-12-2019 23:55:00 8.9 C 7.18 g/m*3 6.06 C 19.3 km/h

Legende:
   Min
   Max


Maximal/Minimal-Werte vom 08.12.2019 - 08.12.2019

Sensor Min Max Avg
Temp
(Aussen-T/F)
8.3 °C
08-12-2019  00:00:00
12.1 °C
08-12-2019  15:05:00
10.06 °C
Abs-Feuchte
(Aussen-T/F)
7.18 g/m*3
08-12-2019  23:55:00
9.48 g/m*3
08-12-2019  16:40:00
8.1 g/m*3
Windchill
(Aussen-T/F)
5.73 C
08-12-2019  23:45:00
12.1 C
08-12-2019  15:05:00
8.63 C

Die Daten stammen von einer Davis Vantage Pro 2 Wetter-Station und werden unter Linux mit der Software wview2wettercgi und aufbereitet. Alle Angaben erfolgen ohne Gewähr für ihre Vollständigkeit oder Richtigkeit.
Kontakt: Rainer Krienke krienke@uni-koblenz.de . Meine Webseiten an der Uni Koblenz oder privat.
Version: $Revision: 0.78 $